Samsonville, Vermont
Current Conditions -  °F | °C
As of 3:35 AM on Friday 28 Nov 2014 (Local Time) from KFSO Reporting Station
Light Snow Light Snow  
Wind Chill: 24°   Ceiling: 2200
Heat Index: 24°   Visibility: 2.5mi
Dew Point: 23°   Wind: 0mph
Humidity: 96%   Direction: NA
Pressure: 30.05"   Gusts: NA
Location:  44.8764°N, 72.758°W
Report Text: KFSO 280835Z AUTO 00000KT 2 1/2SM -SN SCT009 OVC022 M04/M05 A3005 RMK AO2 T10451051
Loading
Personal Weather Stations






























Interactive Weather Map New forecast layout! Learn more

10-Day Weather Forecast

Advertisements
Track Severe Weather on mobile